sensor_id;sensor_type;location;lat;lon;timestamp;P1;durP1;ratioP1;P2;durP2;ratioP2
22026;SDS011;11177;50.966;10.070;2023-04-29T00:01:13;21.08;;;13.90;;
22026;SDS011;11177;50.966;10.070;2023-04-29T00:03:40;18.88;;;13.85;;
22026;SDS011;11177;50.966;10.070;2023-04-29T00:06:07;20.38;;;14.60;;
22026;SDS011;11177;50.966;10.070;2023-04-29T00:08:34;19.58;;;14.35;;
22026;SDS011;11177;50.966;10.070;2023-04-29T00:11:00;18.95;;;14.00;;
22026;SDS011;11177;50.966;10.070;2023-04-29T00:13:27;19.23;;;14.30;;
22026;SDS011;11177;50.966;10.070;2023-04-29T00:15:54;20.45;;;13.82;;
22026;SDS011;11177;50.966;10.070;2023-04-29T00:18:21;17.85;;;13.80;;
22026;SDS011;11177;50.966;10.070;2023-04-29T00:20:48;18.15;;;13.57;;
22026;SDS011;11177;50.966;10.070;2023-04-29T00:23:14;16.67;;;12.32;;
22026;SDS011;11177;50.966;10.070;2023-04-29T00:25:41;15.75;;;12.02;;
22026;SDS011;11177;50.966;10.070;2023-04-29T00:28:08;16.88;;;11.93;;
22026;SDS011;11177;50.966;10.070;2023-04-29T00:30:35;14.65;;;11.32;;
22026;SDS011;11177;50.966;10.070;2023-04-29T00:33:02;17.65;;;12.82;;
22026;SDS011;11177;50.966;10.070;2023-04-29T00:35:29;14.55;;;11.10;;
22026;SDS011;11177;50.966;10.070;2023-04-29T00:37:56;15.63;;;11.27;;
22026;SDS011;11177;50.966;10.070;2023-04-29T00:40:23;14.88;;;11.63;;
22026;SDS011;11177;50.966;10.070;2023-04-29T00:42:50;16.55;;;11.52;;
22026;SDS011;11177;50.966;10.070;2023-04-29T00:45:17;14.68;;;11.07;;
22026;SDS011;11177;50.966;10.070;2023-04-29T00:47:44;16.35;;;11.27;;
22026;SDS011;11177;50.966;10.070;2023-04-29T00:50:11;14.80;;;10.90;;
22026;SDS011;11177;50.966;10.070;2023-04-29T00:52:38;15.65;;;11.50;;
22026;SDS011;11177;50.966;10.070;2023-04-29T00:55:05;16.10;;;11.07;;
22026;SDS011;11177;50.966;10.070;2023-04-29T00:57:34;16.67;;;10.82;;
22026;SDS011;11177;50.966;10.070;2023-04-29T01:00:01;15.00;;;10.52;;
22026;SDS011;11177;50.966;10.070;2023-04-29T01:02:29;17.90;;;10.75;;
22026;SDS011;11177;50.966;10.070;2023-04-29T01:04:56;13.65;;;10.52;;
22026;SDS011;11177;50.966;10.070;2023-04-29T01:07:57;13.82;;;10.35;;
22026;SDS011;11177;50.966;10.070;2023-04-29T01:10:38;13.20;;;10.10;;
22026;SDS011;11177;50.966;10.070;2023-04-29T01:13:30;12.35;;;9.75;;
22026;SDS011;11177;50.966;10.070;2023-04-29T01:16:17;14.20;;;10.38;;
22026;SDS011;11177;50.966;10.070;2023-04-29T01:18:54;15.20;;;10.57;;
22026;SDS011;11177;50.966;10.070;2023-04-29T01:21:23;13.48;;;10.13;;
22026;SDS011;11177;50.966;10.070;2023-04-29T01:23:50;12.45;;;10.00;;
22026;SDS011;11177;50.966;10.070;2023-04-29T01:26:22;14.18;;;9.68;;
22026;SDS011;11177;50.966;10.070;2023-04-29T01:29:01;12.55;;;10.10;;
22026;SDS011;11177;50.966;10.070;2023-04-29T01:31:48;12.43;;;9.88;;
22026;SDS011;11177;50.966;10.070;2023-04-29T01:34:24;12.45;;;10.05;;
22026;SDS011;11177;50.966;10.070;2023-04-29T01:37:11;11.23;;;9.25;;
22026;SDS011;11177;50.966;10.070;2023-04-29T01:42:34;13.20;;;9.70;;
22026;SDS011;11177;50.966;10.070;2023-04-29T01:45:05;11.93;;;8.88;;
22026;SDS011;11177;50.966;10.070;2023-04-29T01:47:33;14.30;;;9.05;;
22026;SDS011;11177;50.966;10.070;2023-04-29T01:50:01;12.45;;;9.20;;
22026;SDS011;11177;50.966;10.070;2023-04-29T01:52:28;16.83;;;9.48;;
22026;SDS011;11177;50.966;10.070;2023-04-29T01:54:55;12.05;;;9.38;;
22026;SDS011;11177;50.966;10.070;2023-04-29T01:57:23;14.10;;;9.60;;
22026;SDS011;11177;50.966;10.070;2023-04-29T01:59:49;12.75;;;10.07;;
22026;SDS011;11177;50.966;10.070;2023-04-29T02:02:17;13.10;;;8.98;;
22026;SDS011;11177;50.966;10.070;2023-04-29T02:04:47;14.32;;;9.60;;
22026;SDS011;11177;50.966;10.070;2023-04-29T02:07:15;12.73;;;8.55;;
22026;SDS011;11177;50.966;10.070;2023-04-29T02:09:42;12.25;;;8.55;;
22026;SDS011;11177;50.966;10.070;2023-04-29T02:12:09;11.05;;;8.73;;
22026;SDS011;11177;50.966;10.070;2023-04-29T02:14:36;13.98;;;8.32;;
22026;SDS011;11177;50.966;10.070;2023-04-29T02:17:03;11.13;;;8.38;;
22026;SDS011;11177;50.966;10.070;2023-04-29T02:19:30;16.45;;;8.75;;
22026;SDS011;11177;50.966;10.070;2023-04-29T02:21:56;13.35;;;8.70;;
22026;SDS011;11177;50.966;10.070;2023-04-29T02:24:23;11.45;;;8.35;;
22026;SDS011;11177;50.966;10.070;2023-04-29T02:26:50;13.82;;;8.65;;
22026;SDS011;11177;50.966;10.070;2023-04-29T02:29:17;10.93;;;8.32;;
22026;SDS011;11177;50.966;10.070;2023-04-29T02:31:44;11.00;;;8.82;;
22026;SDS011;11177;50.966;10.070;2023-04-29T02:34:11;13.02;;;8.63;;
22026;SDS011;11177;50.966;10.070;2023-04-29T02:36:37;14.82;;;9.02;;
22026;SDS011;11177;50.966;10.070;2023-04-29T02:39:04;11.52;;;8.45;;
22026;SDS011;11177;50.966;10.070;2023-04-29T02:41:31;11.10;;;9.00;;
22026;SDS011;11177;50.966;10.070;2023-04-29T02:43:58;10.45;;;8.63;;
22026;SDS011;11177;50.966;10.070;2023-04-29T02:46:25;14.15;;;9.10;;
22026;SDS011;11177;50.966;10.070;2023-04-29T02:48:52;11.55;;;8.48;;
22026;SDS011;11177;50.966;10.070;2023-04-29T02:51:19;12.73;;;8.73;;
22026;SDS011;11177;50.966;10.070;2023-04-29T02:53:46;11.68;;;8.52;;
22026;SDS011;11177;50.966;10.070;2023-04-29T02:56:12;11.48;;;8.23;;
22026;SDS011;11177;50.966;10.070;2023-04-29T02:58:39;12.05;;;8.48;;
22026;SDS011;11177;50.966;10.070;2023-04-29T03:01:07;13.70;;;8.73;;
22026;SDS011;11177;50.966;10.070;2023-04-29T03:03:34;13.90;;;9.23;;
22026;SDS011;11177;50.966;10.070;2023-04-29T03:06:01;13.38;;;9.15;;
22026;SDS011;11177;50.966;10.070;2023-04-29T03:08:28;13.80;;;9.63;;
22026;SDS011;11177;50.966;10.070;2023-04-29T03:10:55;15.80;;;9.68;;
22026;SDS011;11177;50.966;10.070;2023-04-29T03:13:22;13.05;;;9.48;;
22026;SDS011;11177;50.966;10.070;2023-04-29T03:15:49;14.18;;;9.30;;
22026;SDS011;11177;50.966;10.070;2023-04-29T03:18:16;16.30;;;10.73;;
22026;SDS011;11177;50.966;10.070;2023-04-29T03:20:42;14.95;;;9.85;;
22026;SDS011;11177;50.966;10.070;2023-04-29T03:23:09;11.48;;;8.40;;
22026;SDS011;11177;50.966;10.070;2023-04-29T03:25:36;13.27;;;9.55;;
22026;SDS011;11177;50.966;10.070;2023-04-29T03:28:02;12.63;;;9.48;;
22026;SDS011;11177;50.966;10.070;2023-04-29T03:30:29;11.40;;;8.88;;
22026;SDS011;11177;50.966;10.070;2023-04-29T03:32:56;13.57;;;8.95;;
22026;SDS011;11177;50.966;10.070;2023-04-29T03:35:23;11.80;;;8.85;;
22026;SDS011;11177;50.966;10.070;2023-04-29T03:37:50;13.43;;;9.05;;
22026;SDS011;11177;50.966;10.070;2023-04-29T03:40:16;12.23;;;9.20;;
22026;SDS011;11177;50.966;10.070;2023-04-29T03:42:43;10.85;;;8.43;;
22026;SDS011;11177;50.966;10.070;2023-04-29T03:45:10;12.18;;;8.85;;
22026;SDS011;11177;50.966;10.070;2023-04-29T03:47:39;11.30;;;8.75;;
22026;SDS011;11177;50.966;10.070;2023-04-29T03:50:07;16.75;;;9.07;;
22026;SDS011;11177;50.966;10.070;2023-04-29T03:52:34;15.80;;;9.55;;
22026;SDS011;11177;50.966;10.070;2023-04-29T03:55:04;13.57;;;9.02;;
22026;SDS011;11177;50.966;10.070;2023-04-29T03:57:31;13.80;;;8.65;;
22026;SDS011;11177;50.966;10.070;2023-04-29T03:59:58;12.60;;;8.32;;
22026;SDS011;11177;50.966;10.070;2023-04-29T04:02:25;12.75;;;8.27;;
22026;SDS011;11177;50.966;10.070;2023-04-29T04:04:52;12.05;;;8.48;;
22026;SDS011;11177;50.966;10.070;2023-04-29T04:07:21;11.23;;;8.02;;
22026;SDS011;11177;50.966;10.070;2023-04-29T04:09:47;10.82;;;8.02;;
22026;SDS011;11177;50.966;10.070;2023-04-29T04:12:14;14.32;;;8.80;;
22026;SDS011;11177;50.966;10.070;2023-04-29T04:14:41;12.82;;;8.38;;
22026;SDS011;11177;50.966;10.070;2023-04-29T04:17:08;13.18;;;8.73;;
22026;SDS011;11177;50.966;10.070;2023-04-29T04:19:35;13.07;;;8.27;;
22026;SDS011;11177;50.966;10.070;2023-04-29T04:22:02;14.63;;;8.82;;
22026;SDS011;11177;50.966;10.070;2023-04-29T04:24:30;13.73;;;9.07;;
22026;SDS011;11177;50.966;10.070;2023-04-29T04:26:57;15.25;;;8.88;;
22026;SDS011;11177;50.966;10.070;2023-04-29T04:29:23;13.98;;;9.43;;
22026;SDS011;11177;50.966;10.070;2023-04-29T04:31:50;13.32;;;8.98;;
22026;SDS011;11177;50.966;10.070;2023-04-29T04:34:17;13.77;;;8.82;;
22026;SDS011;11177;50.966;10.070;2023-04-29T04:36:44;11.50;;;8.10;;
22026;SDS011;11177;50.966;10.070;2023-04-29T04:39:11;13.75;;;8.88;;
22026;SDS011;11177;50.966;10.070;2023-04-29T04:41:38;15.05;;;8.93;;
22026;SDS011;11177;50.966;10.070;2023-04-29T04:44:05;13.88;;;8.60;;
22026;SDS011;11177;50.966;10.070;2023-04-29T04:46:32;13.18;;;8.73;;
22026;SDS011;11177;50.966;10.070;2023-04-29T04:48:59;14.02;;;8.88;;
22026;SDS011;11177;50.966;10.070;2023-04-29T04:51:26;13.90;;;9.05;;
22026;SDS011;11177;50.966;10.070;2023-04-29T04:53:54;15.07;;;9.25;;
22026;SDS011;11177;50.966;10.070;2023-04-29T04:56:21;16.35;;;9.40;;
22026;SDS011;11177;50.966;10.070;2023-04-29T04:58:48;14.45;;;8.90;;
22026;SDS011;11177;50.966;10.070;2023-04-29T05:01:14;17.17;;;9.15;;
22026;SDS011;11177;50.966;10.070;2023-04-29T05:03:41;13.63;;;8.52;;
22026;SDS011;11177;50.966;10.070;2023-04-29T05:06:08;13.07;;;8.73;;
22026;SDS011;11177;50.966;10.070;2023-04-29T05:08:35;13.95;;;9.10;;
22026;SDS011;11177;50.966;10.070;2023-04-29T05:11:02;14.40;;;9.18;;
22026;SDS011;11177;50.966;10.070;2023-04-29T05:13:29;14.13;;;9.00;;
22026;SDS011;11177;50.966;10.070;2023-04-29T05:15:56;14.80;;;9.32;;
22026;SDS011;11177;50.966;10.070;2023-04-29T05:18:22;13.27;;;8.65;;
22026;SDS011;11177;50.966;10.070;2023-04-29T05:20:49;12.73;;;8.98;;
22026;SDS011;11177;50.966;10.070;2023-04-29T05:23:16;13.82;;;8.82;;
22026;SDS011;11177;50.966;10.070;2023-04-29T05:25:43;12.90;;;8.75;;
22026;SDS011;11177;50.966;10.070;2023-04-29T05:28:10;15.85;;;9.65;;
22026;SDS011;11177;50.966;10.070;2023-04-29T05:30:37;12.30;;;8.63;;
22026;SDS011;11177;50.966;10.070;2023-04-29T05:33:03;12.57;;;8.77;;
22026;SDS011;11177;50.966;10.070;2023-04-29T05:35:31;13.57;;;8.93;;
22026;SDS011;11177;50.966;10.070;2023-04-29T05:37:58;14.15;;;9.00;;
22026;SDS011;11177;50.966;10.070;2023-04-29T05:40:25;10.73;;;7.95;;
22026;SDS011;11177;50.966;10.070;2023-04-29T05:42:52;12.07;;;8.77;;
22026;SDS011;11177;50.966;10.070;2023-04-29T05:45:19;12.02;;;8.65;;
22026;SDS011;11177;50.966;10.070;2023-04-29T05:47:46;12.38;;;8.50;;
22026;SDS011;11177;50.966;10.070;2023-04-29T05:50:13;11.70;;;8.07;;
22026;SDS011;11177;50.966;10.070;2023-04-29T05:52:40;11.52;;;7.95;;
22026;SDS011;11177;50.966;10.070;2023-04-29T05:55:07;12.52;;;7.40;;
22026;SDS011;11177;50.966;10.070;2023-04-29T05:57:34;11.02;;;7.75;;
22026;SDS011;11177;50.966;10.070;2023-04-29T06:00:01;10.40;;;7.63;;
22026;SDS011;11177;50.966;10.070;2023-04-29T06:02:29;11.30;;;7.80;;
22026;SDS011;11177;50.966;10.070;2023-04-29T06:04:56;10.05;;;7.13;;
22026;SDS011;11177;50.966;10.070;2023-04-29T06:07:23;11.38;;;7.53;;
22026;SDS011;11177;50.966;10.070;2023-04-29T06:09:50;13.98;;;7.28;;
22026;SDS011;11177;50.966;10.070;2023-04-29T06:12:17;10.23;;;7.25;;
22026;SDS011;11177;50.966;10.070;2023-04-29T06:14:44;12.90;;;7.00;;
22026;SDS011;11177;50.966;10.070;2023-04-29T06:17:10;9.63;;;6.82;;
22026;SDS011;11177;50.966;10.070;2023-04-29T06:19:38;9.93;;;6.82;;
22026;SDS011;11177;50.966;10.070;2023-04-29T06:22:05;7.70;;;6.32;;
22026;SDS011;11177;50.966;10.070;2023-04-29T06:24:35;8.98;;;6.50;;
22026;SDS011;11177;50.966;10.070;2023-04-29T06:27:26;8.68;;;6.20;;
22026;SDS011;11177;50.966;10.070;2023-04-29T06:30:30;9.43;;;5.80;;
22026;SDS011;11177;50.966;10.070;2023-04-29T06:32:57;7.68;;;5.63;;
22026;SDS011;11177;50.966;10.070;2023-04-29T06:35:24;7.78;;;5.50;;
22026;SDS011;11177;50.966;10.070;2023-04-29T06:37:51;7.93;;;5.93;;
22026;SDS011;11177;50.966;10.070;2023-04-29T06:40:18;7.80;;;5.75;;
22026;SDS011;11177;50.966;10.070;2023-04-29T06:42:49;7.85;;;5.47;;
22026;SDS011;11177;50.966;10.070;2023-04-29T06:45:17;7.15;;;5.40;;
22026;SDS011;11177;50.966;10.070;2023-04-29T06:47:44;7.43;;;5.35;;
22026;SDS011;11177;50.966;10.070;2023-04-29T06:50:12;8.68;;;6.28;;
22026;SDS011;11177;50.966;10.070;2023-04-29T06:52:39;10.18;;;6.03;;
22026;SDS011;11177;50.966;10.070;2023-04-29T06:55:07;7.30;;;5.20;;
22026;SDS011;11177;50.966;10.070;2023-04-29T06:57:53;9.18;;;5.93;;
22026;SDS011;11177;50.966;10.070;2023-04-29T07:00:32;8.07;;;5.55;;
22026;SDS011;11177;50.966;10.070;2023-04-29T07:02:59;7.80;;;5.50;;
22026;SDS011;11177;50.966;10.070;2023-04-29T07:05:26;8.07;;;5.80;;
22026;SDS011;11177;50.966;10.070;2023-04-29T07:07:53;6.50;;;5.07;;
22026;SDS011;11177;50.966;10.070;2023-04-29T07:10:20;9.13;;;6.00;;
22026;SDS011;11177;50.966;10.070;2023-04-29T07:12:47;6.50;;;4.68;;
22026;SDS011;11177;50.966;10.070;2023-04-29T07:15:14;8.27;;;4.75;;
22026;SDS011;11177;50.966;10.070;2023-04-29T07:17:41;7.70;;;4.90;;
22026;SDS011;11177;50.966;10.070;2023-04-29T07:20:08;8.00;;;4.38;;
22026;SDS011;11177;50.966;10.070;2023-04-29T07:22:35;8.65;;;4.50;;
22026;SDS011;11177;50.966;10.070;2023-04-29T07:25:02;5.60;;;4.28;;
22026;SDS011;11177;50.966;10.070;2023-04-29T07:27:31;7.63;;;5.05;;
22026;SDS011;11177;50.966;10.070;2023-04-29T07:29:59;7.00;;;4.70;;
22026;SDS011;11177;50.966;10.070;2023-04-29T07:32:27;6.20;;;4.07;;
22026;SDS011;11177;50.966;10.070;2023-04-29T07:34:54;6.50;;;4.40;;
22026;SDS011;11177;50.966;10.070;2023-04-29T07:37:21;6.40;;;3.92;;
22026;SDS011;11177;50.966;10.070;2023-04-29T07:39:48;8.43;;;5.00;;
22026;SDS011;11177;50.966;10.070;2023-04-29T07:42:15;6.45;;;4.50;;
22026;SDS011;11177;50.966;10.070;2023-04-29T07:44:41;7.43;;;4.80;;
22026;SDS011;11177;50.966;10.070;2023-04-29T07:47:08;7.28;;;4.80;;
22026;SDS011;11177;50.966;10.070;2023-04-29T07:49:35;5.82;;;4.28;;
22026;SDS011;11177;50.966;10.070;2023-04-29T07:52:06;7.20;;;4.40;;
22026;SDS011;11177;50.966;10.070;2023-04-29T07:54:35;7.20;;;4.68;;
22026;SDS011;11177;50.966;10.070;2023-04-29T07:57:02;7.65;;;5.18;;
22026;SDS011;11177;50.966;10.070;2023-04-29T07:59:30;6.82;;;4.68;;
22026;SDS011;11177;50.966;10.070;2023-04-29T08:01:57;8.35;;;5.07;;
22026;SDS011;11177;50.966;10.070;2023-04-29T08:04:27;6.10;;;4.55;;
22026;SDS011;11177;50.966;10.070;2023-04-29T08:06:55;8.40;;;4.70;;
22026;SDS011;11177;50.966;10.070;2023-04-29T08:09:22;14.07;;;5.40;;
22026;SDS011;11177;50.966;10.070;2023-04-29T08:11:49;26.05;;;5.93;;
22026;SDS011;11177;50.966;10.070;2023-04-29T08:14:16;6.05;;;4.45;;
22026;SDS011;11177;50.966;10.070;2023-04-29T08:16:43;7.18;;;4.93;;
22026;SDS011;11177;50.966;10.070;2023-04-29T08:19:10;7.45;;;5.07;;
22026;SDS011;11177;50.966;10.070;2023-04-29T08:21:36;8.82;;;5.15;;
22026;SDS011;11177;50.966;10.070;2023-04-29T08:24:03;13.70;;;5.53;;
22026;SDS011;11177;50.966;10.070;2023-04-29T08:26:31;8.13;;;5.07;;
22026;SDS011;11177;50.966;10.070;2023-04-29T08:28:58;14.40;;;4.82;;
22026;SDS011;11177;50.966;10.070;2023-04-29T08:31:25;6.75;;;4.38;;
22026;SDS011;11177;50.966;10.070;2023-04-29T08:33:52;7.38;;;5.05;;
22026;SDS011;11177;50.966;10.070;2023-04-29T08:36:20;11.07;;;5.05;;
22026;SDS011;11177;50.966;10.070;2023-04-29T08:38:47;5.85;;;4.13;;
22026;SDS011;11177;50.966;10.070;2023-04-29T08:41:14;20.92;;;5.53;;
22026;SDS011;11177;50.966;10.070;2023-04-29T08:43:42;7.28;;;3.70;;
22026;SDS011;11177;50.966;10.070;2023-04-29T08:46:09;6.03;;;4.10;;
22026;SDS011;11177;50.966;10.070;2023-04-29T08:48:36;5.65;;;4.22;;
22026;SDS011;11177;50.966;10.070;2023-04-29T08:51:10;6.18;;;4.13;;
22026;SDS011;11177;50.966;10.070;2023-04-29T08:53:38;6.22;;;3.97;;
22026;SDS011;11177;50.966;10.070;2023-04-29T08:56:11;6.90;;;4.75;;
22026;SDS011;11177;50.966;10.070;2023-04-29T08:58:40;8.65;;;5.20;;
22026;SDS011;11177;50.966;10.070;2023-04-29T09:01:08;6.65;;;5.00;;
22026;SDS011;11177;50.966;10.070;2023-04-29T09:03:43;6.50;;;4.75;;
22026;SDS011;11177;50.966;10.070;2023-04-29T09:06:13;6.78;;;4.68;;
22026;SDS011;11177;50.966;10.070;2023-04-29T09:08:40;7.13;;;5.00;;
22026;SDS011;11177;50.966;10.070;2023-04-29T09:11:08;8.70;;;5.07;;
22026;SDS011;11177;50.966;10.070;2023-04-29T09:13:37;7.32;;;5.20;;
22026;SDS011;11177;50.966;10.070;2023-04-29T09:16:04;8.07;;;5.38;;
22026;SDS011;11177;50.966;10.070;2023-04-29T09:18:49;8.07;;;5.25;;
22026;SDS011;11177;50.966;10.070;2023-04-29T09:21:21;7.15;;;5.35;;
22026;SDS011;11177;50.966;10.070;2023-04-29T09:23:59;6.72;;;5.10;;
22026;SDS011;11177;50.966;10.070;2023-04-29T09:26:27;15.13;;;5.43;;
22026;SDS011;11177;50.966;10.070;2023-04-29T09:29:06;7.88;;;5.18;;
22026;SDS011;11177;50.966;10.070;2023-04-29T09:31:39;6.93;;;5.10;;
22026;SDS011;11177;50.966;10.070;2023-04-29T09:34:07;7.13;;;5.28;;
22026;SDS011;11177;50.966;10.070;2023-04-29T09:36:35;7.20;;;5.50;;
22026;SDS011;11177;50.966;10.070;2023-04-29T09:39:16;7.35;;;5.63;;
22026;SDS011;11177;50.966;10.070;2023-04-29T09:44:40;6.00;;;4.93;;
22026;SDS011;11177;50.966;10.070;2023-04-29T09:47:08;6.85;;;5.22;;
22026;SDS011;11177;50.966;10.070;2023-04-29T09:49:36;6.85;;;5.25;;
22026;SDS011;11177;50.966;10.070;2023-04-29T09:52:07;8.15;;;5.80;;
22026;SDS011;11177;50.966;10.070;2023-04-29T09:54:36;8.45;;;6.03;;
22026;SDS011;11177;50.966;10.070;2023-04-29T09:57:05;8.13;;;5.97;;
22026;SDS011;11177;50.966;10.070;2023-04-29T09:59:33;8.15;;;6.10;;
22026;SDS011;11177;50.966;10.070;2023-04-29T10:02:06;7.90;;;5.80;;
22026;SDS011;11177;50.966;10.070;2023-04-29T10:04:37;9.38;;;6.00;;
22026;SDS011;11177;50.966;10.070;2023-04-29T10:07:06;9.50;;;5.75;;
22026;SDS011;11177;50.966;10.070;2023-04-29T10:09:35;9.07;;;5.95;;
22026;SDS011;11177;50.966;10.070;2023-04-29T10:12:03;6.57;;;5.32;;
22026;SDS011;11177;50.966;10.070;2023-04-29T10:14:31;6.85;;;5.45;;
22026;SDS011;11177;50.966;10.070;2023-04-29T10:17:10;9.95;;;6.07;;
22026;SDS011;11177;50.966;10.070;2023-04-29T10:19:46;10.20;;;5.70;;
22026;SDS011;11177;50.966;10.070;2023-04-29T10:22:26;8.85;;;6.38;;
22026;SDS011;11177;50.966;10.070;2023-04-29T10:24:55;8.10;;;5.93;;
22026;SDS011;11177;50.966;10.070;2023-04-29T10:27:22;7.38;;;5.40;;
22026;SDS011;11177;50.966;10.070;2023-04-29T10:29:50;8.10;;;5.88;;
22026;SDS011;11177;50.966;10.070;2023-04-29T10:32:18;8.70;;;6.00;;
22026;SDS011;11177;50.966;10.070;2023-04-29T10:34:47;9.40;;;6.18;;
22026;SDS011;11177;50.966;10.070;2023-04-29T10:37:15;7.43;;;5.93;;
22026;SDS011;11177;50.966;10.070;2023-04-29T10:39:58;8.30;;;5.80;;
22026;SDS011;11177;50.966;10.070;2023-04-29T10:42:32;8.02;;;6.30;;
22026;SDS011;11177;50.966;10.070;2023-04-29T10:45:24;8.18;;;6.40;;
22026;SDS011;11177;50.966;10.070;2023-04-29T10:48:10;7.85;;;5.88;;
22026;SDS011;11177;50.966;10.070;2023-04-29T10:51:00;7.53;;;6.03;;
22026;SDS011;11177;50.966;10.070;2023-04-29T10:53:27;11.57;;;6.32;;
22026;SDS011;11177;50.966;10.070;2023-04-29T10:56:05;9.15;;;6.47;;
22026;SDS011;11177;50.966;10.070;2023-04-29T10:58:44;9.45;;;7.03;;
22026;SDS011;11177;50.966;10.070;2023-04-29T11:01:12;7.65;;;6.47;;
22026;SDS011;11177;50.966;10.070;2023-04-29T11:03:51;7.80;;;6.50;;
22026;SDS011;11177;50.966;10.070;2023-04-29T11:06:38;8.57;;;6.60;;
22026;SDS011;11177;50.966;10.070;2023-04-29T11:09:29;8.50;;;6.78;;
22026;SDS011;11177;50.966;10.070;2023-04-29T11:11:59;8.77;;;6.63;;
22026;SDS011;11177;50.966;10.070;2023-04-29T11:17:33;9.45;;;6.70;;
22026;SDS011;11177;50.966;10.070;2023-04-29T11:20:02;10.57;;;6.80;;
22026;SDS011;11177;50.966;10.070;2023-04-29T11:22:29;12.38;;;6.80;;
22026;SDS011;11177;50.966;10.070;2023-04-29T11:25:07;9.55;;;6.93;;
22026;SDS011;11177;50.966;10.070;2023-04-29T11:27:36;10.10;;;6.93;;
22026;SDS011;11177;50.966;10.070;2023-04-29T11:30:04;10.80;;;7.18;;
22026;SDS011;11177;50.966;10.070;2023-04-29T11:32:36;10.48;;;6.75;;
22026;SDS011;11177;50.966;10.070;2023-04-29T11:35:09;11.05;;;7.55;;
22026;SDS011;11177;50.966;10.070;2023-04-29T11:37:37;9.82;;;7.30;;
22026;SDS011;11177;50.966;10.070;2023-04-29T11:40:05;10.65;;;7.30;;
22026;SDS011;11177;50.966;10.070;2023-04-29T11:42:39;12.48;;;7.85;;
22026;SDS011;11177;50.966;10.070;2023-04-29T11:45:08;15.70;;;8.95;;
22026;SDS011;11177;50.966;10.070;2023-04-29T11:47:35;12.80;;;8.77;;
22026;SDS011;11177;50.966;10.070;2023-04-29T11:50:06;14.70;;;9.75;;
22026;SDS011;11177;50.966;10.070;2023-04-29T11:52:36;16.30;;;10.63;;
22026;SDS011;11177;50.966;10.070;2023-04-29T11:55:04;15.63;;;10.35;;
22026;SDS011;11177;50.966;10.070;2023-04-29T11:57:31;16.83;;;10.15;;
22026;SDS011;11177;50.966;10.070;2023-04-29T11:59:58;16.17;;;10.60;;
22026;SDS011;11177;50.966;10.070;2023-04-29T12:02:31;17.23;;;10.23;;
22026;SDS011;11177;50.966;10.070;2023-04-29T12:04:59;17.23;;;10.85;;
22026;SDS011;11177;50.966;10.070;2023-04-29T12:07:27;17.77;;;11.82;;
22026;SDS011;11177;50.966;10.070;2023-04-29T12:09:54;18.73;;;11.75;;
22026;SDS011;11177;50.966;10.070;2023-04-29T12:12:25;55.75;;;12.15;;
22026;SDS011;11177;50.966;10.070;2023-04-29T12:14:53;18.80;;;11.73;;
22026;SDS011;11177;50.966;10.070;2023-04-29T12:17:20;17.98;;;11.88;;
22026;SDS011;11177;50.966;10.070;2023-04-29T12:19:47;20.20;;;12.43;;
22026;SDS011;11177;50.966;10.070;2023-04-29T12:22:15;18.70;;;12.60;;
22026;SDS011;11177;50.966;10.070;2023-04-29T12:24:42;24.30;;;13.00;;
22026;SDS011;11177;50.966;10.070;2023-04-29T12:27:08;19.65;;;12.52;;
22026;SDS011;11177;50.966;10.070;2023-04-29T12:29:36;17.23;;;13.25;;
22026;SDS011;11177;50.966;10.070;2023-04-29T12:32:03;17.98;;;12.70;;
22026;SDS011;11177;50.966;10.070;2023-04-29T12:34:31;18.13;;;13.05;;
22026;SDS011;11177;50.966;10.070;2023-04-29T12:36:58;18.50;;;12.70;;
22026;SDS011;11177;50.966;10.070;2023-04-29T12:39:26;19.20;;;12.88;;
22026;SDS011;11177;50.966;10.070;2023-04-29T12:41:54;16.52;;;12.15;;
22026;SDS011;11177;50.966;10.070;2023-04-29T12:44:23;18.23;;;12.35;;
22026;SDS011;11177;50.966;10.070;2023-04-29T12:46:50;18.17;;;12.35;;
22026;SDS011;11177;50.966;10.070;2023-04-29T12:49:23;18.08;;;11.68;;
22026;SDS011;11177;50.966;10.070;2023-04-29T12:51:50;14.85;;;11.55;;
22026;SDS011;11177;50.966;10.070;2023-04-29T12:54:17;16.70;;;11.30;;
22026;SDS011;11177;50.966;10.070;2023-04-29T12:56:44;13.23;;;9.65;;
22026;SDS011;11177;50.966;10.070;2023-04-29T12:59:14;17.25;;;10.50;;
22026;SDS011;11177;50.966;10.070;2023-04-29T13:01:42;13.80;;;9.18;;
22026;SDS011;11177;50.966;10.070;2023-04-29T13:04:08;14.32;;;8.40;;
22026;SDS011;11177;50.966;10.070;2023-04-29T13:06:37;9.60;;;7.25;;
22026;SDS011;11177;50.966;10.070;2023-04-29T13:09:08;9.13;;;7.50;;
22026;SDS011;11177;50.966;10.070;2023-04-29T13:11:44;9.13;;;6.90;;
22026;SDS011;11177;50.966;10.070;2023-04-29T13:14:10;9.38;;;6.70;;
22026;SDS011;11177;50.966;10.070;2023-04-29T13:16:38;8.68;;;6.82;;
22026;SDS011;11177;50.966;10.070;2023-04-29T13:19:06;8.38;;;6.55;;
22026;SDS011;11177;50.966;10.070;2023-04-29T13:21:52;8.85;;;6.70;;
22026;SDS011;11177;50.966;10.070;2023-04-29T13:24:19;8.18;;;6.70;;
22026;SDS011;11177;50.966;10.070;2023-04-29T13:26:46;9.68;;;7.50;;
22026;SDS011;11177;50.966;10.070;2023-04-29T13:29:18;9.75;;;7.32;;
22026;SDS011;11177;50.966;10.070;2023-04-29T13:31:44;9.75;;;7.70;;
22026;SDS011;11177;50.966;10.070;2023-04-29T13:34:11;8.70;;;7.30;;
22026;SDS011;11177;50.966;10.070;2023-04-29T13:36:38;8.68;;;7.35;;
22026;SDS011;11177;50.966;10.070;2023-04-29T13:39:05;10.30;;;7.80;;
22026;SDS011;11177;50.966;10.070;2023-04-29T13:41:32;9.20;;;7.60;;
22026;SDS011;11177;50.966;10.070;2023-04-29T13:44:00;10.13;;;8.35;;
22026;SDS011;11177;50.966;10.070;2023-04-29T13:46:29;9.52;;;7.80;;
22026;SDS011;11177;50.966;10.070;2023-04-29T13:48:58;9.15;;;7.90;;
22026;SDS011;11177;50.966;10.070;2023-04-29T13:51:28;10.60;;;8.00;;
22026;SDS011;11177;50.966;10.070;2023-04-29T13:54:15;9.23;;;7.78;;
22026;SDS011;11177;50.966;10.070;2023-04-29T13:56:45;9.77;;;7.80;;
22026;SDS011;11177;50.966;10.070;2023-04-29T13:59:15;10.35;;;7.95;;
22026;SDS011;11177;50.966;10.070;2023-04-29T14:01:45;8.73;;;7.55;;
22026;SDS011;11177;50.966;10.070;2023-04-29T14:04:15;11.32;;;7.93;;
22026;SDS011;11177;50.966;10.070;2023-04-29T14:06:42;11.18;;;8.07;;
22026;SDS011;11177;50.966;10.070;2023-04-29T14:09:09;9.65;;;8.13;;
22026;SDS011;11177;50.966;10.070;2023-04-29T14:11:36;9.73;;;8.25;;
22026;SDS011;11177;50.966;10.070;2023-04-29T14:14:03;9.82;;;8.15;;
22026;SDS011;11177;50.966;10.070;2023-04-29T14:16:30;9.60;;;8.00;;
22026;SDS011;11177;50.966;10.070;2023-04-29T14:18:57;9.70;;;8.15;;
22026;SDS011;11177;50.966;10.070;2023-04-29T14:21:28;10.35;;;7.75;;
22026;SDS011;11177;50.966;10.070;2023-04-29T14:23:57;10.65;;;8.63;;
22026;SDS011;11177;50.966;10.070;2023-04-29T14:26:25;11.45;;;8.52;;
22026;SDS011;11177;50.966;10.070;2023-04-29T14:28:54;10.82;;;8.23;;
22026;SDS011;11177;50.966;10.070;2023-04-29T14:31:25;13.65;;;9.27;;
22026;SDS011;11177;50.966;10.070;2023-04-29T14:33:54;12.00;;;8.30;;
22026;SDS011;11177;50.966;10.070;2023-04-29T14:36:22;10.32;;;8.55;;
22026;SDS011;11177;50.966;10.070;2023-04-29T14:38:49;12.27;;;8.98;;
22026;SDS011;11177;50.966;10.070;2023-04-29T14:41:16;9.50;;;8.10;;
22026;SDS011;11177;50.966;10.070;2023-04-29T14:43:43;9.57;;;7.57;;